Terminal Aerodrome Forecast
Issued by NWS Jackson, KY

Current Version | Previous Version | Text Only | Print | Product List | Glossary On
Versions: 1 2 3 4 5 6 7 8 9 10 11 12 13 14 15
000
FTUS43 KJKL 261121
TAFLOZ
TAF
KLOZ 261121Z 2612/2712 00000KT 6SM BR FEW004
      TEMPO 2612/2614 2SM BR SCT002
     FM261400 05004KT P6SM FEW040
     FM270700 00000KT 2SM BR SCT004=

USA.gov is the U.S. government's official web portal to all federal, state and local government web resources and services.